Glen Rose, TX (76043)

8:39 PM CDT on April 18, 2015 (GMT -0500)
Opossum Hollow | | Change Station
CLOSE
Current Station
Personal Weather Station
Location: Glen Rose, TX
Elevation: 771 ft
Nearby Weather Stations
Active Advisory: Severe Thunderstorm Watch

Elev 771 ft 32.25 °N, 97.83 °W | Updated 2 seconds ago

Rain
Rain
58.6 °F
Feels Like 58.6 °F
N
3.0
Wind Variable Wind from NW
Gusts 15.0 mph

Today
High -- | Low -- °F
--% Chance of Precip.
Yesterday
High -- | Low -- °F
Precip. -- in
6:58 AM 8:02 PM
New Moon, 0% visible
Pressure 29.90 in
Visibility 3.0 miles
Clouds Few 100 ft
Scattered Clouds 1600 ft
Mostly Cloudy 3200 ft
Dew Point 56 °F
Humidity 90%
Rainfall 2.00 in
Snow Depth Not available.
UV 0 out of 12
Pollen 8.20 out of 12
Air Quality Not available.
Flu Activity Local Activity
METAR KCPT 190115Z AUTO 00000KT 3SM VCTS RA FEW001 SCT016 BKN032 14/14 A2990 RMK AO2 LTG DSNT ALQDS

More Conditions Fewer Conditions

Pressure 29.90 in
Visibility 3.0 miles
Clouds Few 100 ft
Scattered Clouds 1600 ft
Mostly Cloudy 3200 ft
Dew Point 56 °F
Humidity 90%
Rainfall 2.00 in
Snow Depth Not available.
UV 0 out of 12
Pollen 8.20 out of 12
Air Quality Not available.
Flu Activity Local Activity
METAR KCPT 190115Z AUTO 00000KT 3SM VCTS RA FEW001 SCT016 BKN032 14/14 A2990 RMK AO2 LTG DSNT ALQDS

More Conditions Fewer Conditions

10-Day Weather Forecast

Almanac

Astronomy

Apr. 18, 2015 Rise Set
Actual Time
Civil Twilight
Nautical Twilight
Astronomical Twilight
Moon
Length of Visible Light
Length of Day
Tomorrow will be .
, % of the Moon is Illuminated

Today's Extremes

State Highs State Lows

Community

WunderPhotos

Upload Photos

1,814,626 photos uploaded!

WunderBlogs® & News

Nearby

Air Quality

  Air Quality AQ Index Pollutant
Not available.

Snow Depth

Station Depth Elevation

Earthquake Activity

City Distance Mag. Time & Date
Minimum magnitude displayed is 2.5.

Coastal Water Temperatures

Place Temperature

Stations

Nearby Weather Stations

Station Location Temp. Windchill Dew Point Humidity Wind Precip. Elev Updated Type
                   
Severe Thunderstorm Watch
Statement as of 8:24 PM CDT on April 18, 2015

Severe Thunderstorm Watch 72 remains in effect until 900 PM CDT
for the following locations


TX
. Texas counties included are

Bandera Bexar blanco
Bosque Brown Burnet
Callahan Coleman Comal
Comanche Concho Coryell
Eastland Edwards Erath
Gillespie Hamilton Haskell
Hays Hood Jack
Jones Kendall Kerr
Kimble Kinney Lampasas
Llano McCulloch Mason
Maverick Medina Menard
Mills Montague Palo Pinto
Parker real Runnels
San Saba Shackelford Somervell
Stephens Taylor Throckmorton
Travis Uvalde Val Verde
Williamson wise Young